Time;durP1;ratioP1;P1;durP2;ratioP2;P2;SDS_P1;SDS_P2;PMS_P1;PMS_P2;Temp;Humidity;BMP_temperature;BMP_pressure;BME280_temperature;BME280_humidity;BME280_pressure;Samples;Min_cycle;Max_cycle;Signal;HPM_P1;HPM_P2
2022/06/29 00:01:26;;;;;;;9.00;8.10;;;;;;;20.21;90.15;98019.13;4139795;28;20637;-87
2022/06/29 00:03:29;;;;;;;8.50;7.40;;;;;;;20.21;91.01;98026.28;4129391;28;20627;-86
2022/06/29 00:05:32;;;;;;;8.40;7.60;;;;;;;20.19;90.09;98021.13;4145366;28;20662;-86
2022/06/29 00:07:35;;;;;;;8.77;7.97;;;;;;;20.19;92.14;98030.88;4127671;28;20722;-86
2022/06/29 00:09:38;;;;;;;8.87;8.03;;;;;;;20.17;91.90;98033.69;4146025;28;20633;-86
2022/06/29 00:11:42;;;;;;;8.67;7.90;;;;;;;20.16;90.90;98033.84;4145309;28;21122;-86
2022/06/29 00:13:45;;;;;;;8.67;7.40;;;;;;;20.12;90.52;98025.44;4145427;28;20635;-87
2022/06/29 00:15:49;;;;;;;8.83;7.77;;;;;;;20.10;92.23;98019.47;4131975;28;21007;-86
2022/06/29 00:17:52;;;;;;;10.10;7.33;;;;;;;20.08;91.28;98029.38;4146477;28;20662;-86
2022/06/29 00:19:55;;;;;;;7.77;6.70;;;;;;;20.05;91.94;98024.41;4131027;28;20637;-86
2022/06/29 00:21:58;;;;;;;8.33;7.53;;;;;;;20.03;91.94;98021.13;4128145;28;20627;-86
2022/06/29 00:24:02;;;;;;;10.13;7.80;;;;;;;20.01;91.52;98014.31;4128055;28;20639;-86
2022/06/29 00:26:05;;;;;;;9.67;7.90;;;;;;;20.00;91.95;98015.31;4129649;28;20636;-86
2022/06/29 00:28:08;;;;;;;8.10;7.30;;;;;;;19.97;91.86;98010.34;4124449;28;21255;-86
2022/06/29 00:30:12;;;;;;;8.97;8.17;;;;;;;19.95;91.45;98005.22;4124215;28;20647;-86
2022/06/29 00:32:17;;;;;;;8.53;7.10;;;;;;;19.90;91.89;97996.94;4126790;28;21276;-86
2022/06/29 00:34:20;;;;;;;7.97;7.10;;;;;;;19.89;91.78;97994.44;4130721;28;20646;-86
2022/06/29 00:36:24;;;;;;;9.07;7.13;;;;;;;19.86;93.33;97997.44;4126535;28;20634;-86
2022/06/29 00:38:27;;;;;;;8.10;7.40;;;;;;;19.82;91.66;97993.44;4125444;28;20642;-86
2022/06/29 00:40:30;;;;;;;8.23;7.30;;;;;;;19.78;93.58;97988.63;4145027;28;20732;-86
2022/06/29 00:42:33;;;;;;;8.10;7.40;;;;;;;19.74;92.90;97985.47;4130859;28;20642;-86
2022/06/29 00:44:36;;;;;;;8.43;7.63;;;;;;;19.72;92.44;97990.09;4143412;28;20641;-86
2022/06/29 00:46:41;;;;;;;8.87;7.97;;;;;;;19.73;92.88;97988.28;4139175;28;20645;-86
2022/06/29 00:48:46;;;;;;;8.10;7.37;;;;;;;19.72;93.84;97986.63;4143777;28;20649;-86
2022/06/29 00:50:49;;;;;;;10.10;7.40;;;;;;;19.68;92.36;97990.59;4132384;28;20656;-86
2022/06/29 00:52:53;;;;;;;8.90;8.00;;;;;;;19.65;92.52;97975.03;4129350;28;20687;-86
2022/06/29 00:54:58;;;;;;;9.50;8.50;;;;;;;19.61;93.44;97979.81;4129115;28;20630;-86
2022/06/29 00:57:04;;;;;;;9.63;7.80;;;;;;;19.59;92.72;97976.53;4125872;28;20705;-86
2022/06/29 00:59:08;;;;;;;9.30;7.77;;;;;;;19.56;93.11;97968.91;4128210;28;20736;-86
2022/06/29 01:01:12;;;;;;;8.80;8.00;;;;;;;19.55;94.02;97982.31;4130590;28;20646;-86
2022/06/29 01:03:15;;;;;;;11.70;8.10;;;;;;;19.52;93.41;97972.03;4147267;28;20650;-86
2022/06/29 01:05:20;;;;;;;8.50;7.53;;;;;;;19.49;92.73;97970.53;4129044;28;20638;-86
2022/06/29 01:07:24;;;;;;;8.60;7.70;;;;;;;19.48;93.50;97968.91;4128714;28;21105;-86
2022/06/29 01:09:27;;;;;;;8.43;7.63;;;;;;;19.46;93.21;97970.88;4140309;28;20625;-86
2022/06/29 01:11:30;;;;;;;9.53;7.87;;;;;;;19.43;93.75;97971.19;4126780;28;20630;-87
2022/06/29 01:13:33;;;;;;;8.30;7.60;;;;;;;19.39;92.70;97964.59;4140755;28;20657;-86
2022/06/29 01:15:36;;;;;;;8.63;7.83;;;;;;;19.38;92.95;97960.28;4146132;28;20645;-86
2022/06/29 01:17:40;;;;;;;8.97;8.07;;;;;;;19.37;93.86;97961.25;4127967;28;20683;-86
2022/06/29 01:19:44;;;;;;;9.73;8.23;;;;;;;19.38;94.21;97964.75;4141204;28;22095;-86
2022/06/29 01:21:51;;;;;;;9.00;7.30;;;;;;;19.39;94.38;97963.72;4122889;28;21225;-86
2022/06/29 01:23:55;;;;;;;9.03;7.67;;;;;;;19.40;94.25;97962.75;4128247;28;20655;-86
2022/06/29 01:26:04;;;;;;;8.30;7.40;;;;;;;19.43;92.72;97965.06;4141761;28;20629;-86
2022/06/29 01:28:07;;;;;;;9.57;7.97;;;;;;;19.44;92.92;97962.28;4142995;28;21257;-86
2022/06/29 01:30:11;;;;;;;8.50;7.70;;;;;;;19.46;94.66;97954.16;4132014;28;20817;-86
2022/06/29 01:32:14;;;;;;;9.33;8.50;;;;;;;19.46;94.23;97949.69;4132167;28;20632;-86
2022/06/29 01:34:17;;;;;;;8.57;7.77;;;;;;;19.45;93.15;97953.34;4130316;28;21074;-86
2022/06/29 01:36:21;;;;;;;12.43;8.47;;;;;;;19.42;92.73;97944.88;4142296;28;21282;-86
2022/06/29 01:38:24;;;;;;;9.00;8.07;;;;;;;19.39;93.31;97954.00;4141565;28;20686;-87
2022/06/29 01:40:28;;;;;;;8.70;7.90;;;;;;;19.38;93.89;97948.88;4126292;28;20623;-86
2022/06/29 01:42:32;;;;;;;12.10;8.13;;;;;;;19.36;93.58;97953.47;4131591;28;21046;-86
2022/06/29 01:44:36;;;;;;;8.70;7.80;;;;;;;19.31;92.76;97953.16;4141844;28;20710;-87
2022/06/29 01:46:39;;;;;;;9.07;8.17;;;;;;;19.29;92.69;97959.56;4127640;28;20659;-86
2022/06/29 01:48:42;;;;;;;9.17;8.00;;;;;;;19.27;93.86;97962.38;4135551;28;20644;-86
2022/06/29 01:50:45;;;;;;;8.60;7.90;;;;;;;19.24;93.68;97962.69;4128946;28;20641;-86
2022/06/29 01:52:48;;;;;;;8.20;7.40;;;;;;;19.19;93.02;97958.91;4119374;28;20636;-86
2022/06/29 01:54:51;;;;;;;8.20;7.40;;;;;;;19.16;93.11;97962.69;4146302;28;20638;-87
2022/06/29 01:56:56;;;;;;;10.03;9.07;;;;;;;19.15;93.86;97963.66;4148517;28;20639;-87
2022/06/29 01:58:59;;;;;;;8.77;7.97;;;;;;;19.12;93.16;97960.53;4130929;28;20713;-86
2022/06/29 02:01:02;;;;;;;9.40;8.50;;;;;;;19.10;93.48;97960.69;4142844;28;21099;-86
2022/06/29 02:03:05;;;;;;;9.77;8.87;;;;;;;19.09;93.10;97963.47;4146913;28;20668;-86
2022/06/29 02:05:09;;;;;;;10.13;9.13;;;;;;;19.06;93.80;97951.44;4128608;28;20761;-86
2022/06/29 02:07:12;;;;;;;8.83;8.03;;;;;;;19.04;94.12;97960.50;4138740;28;20638;-86
2022/06/29 02:09:15;;;;;;;9.87;8.87;;;;;;;19.00;94.09;97951.19;4138029;28;21043;-86
2022/06/29 02:11:19;;;;;;;9.87;8.90;;;;;;;18.99;93.62;97954.84;4142003;28;20988;-86
2022/06/29 02:13:24;;;;;;;9.87;8.93;;;;;;;18.97;94.23;97947.06;4142615;28;20633;-87
2022/06/29 02:15:27;;;;;;;9.77;8.77;;;;;;;18.97;94.58;97951.50;4133980;28;20641;-86
2022/06/29 02:17:30;;;;;;;10.30;8.53;;;;;;;18.93;94.35;97951.00;4127194;28;21283;-86
2022/06/29 02:19:33;;;;;;;9.20;8.40;;;;;;;18.90;94.05;97958.44;4128187;28;20644;-86
2022/06/29 02:21:36;;;;;;;10.23;9.20;;;;;;;18.87;93.50;97948.19;4142805;28;20637;-87
2022/06/29 02:23:39;;;;;;;9.53;8.53;;;;;;;18.85;93.50;97947.50;4140321;28;20637;-87
2022/06/29 02:25:43;;;;;;;10.10;9.10;;;;;;;18.85;94.61;97946.66;4145975;28;20637;-86
2022/06/29 02:27:46;;;;;;;9.97;8.93;;;;;;;18.83;94.26;97943.38;4127745;28;21024;-86
2022/06/29 02:29:51;;;;;;;12.87;9.97;;;;;;;18.83;94.43;97944.19;4127399;28;20642;-87
2022/06/29 02:36:36;;;;;;;10.03;9.03;;;;;;;18.81;94.97;97948.81;4128810;28;20635;-86
2022/06/29 02:38:39;;;;;;;10.83;9.67;;;;;;;18.81;94.25;97942.69;4124831;28;20660;-86
2022/06/29 02:40:42;;;;;;;10.00;9.10;;;;;;;18.80;94.41;97939.22;4129132;28;20622;-86
2022/06/29 02:42:45;;;;;;;13.23;10.10;;;;;;;18.83;94.50;97938.09;4127747;28;20672;-86
2022/06/29 02:45:07;;;;;;;9.73;8.80;;;;;;;18.80;94.81;97927.81;4134103;28;21452;-86
2022/06/29 02:47:10;;;;;;;9.97;9.10;;;;;;;18.78;95.37;97930.63;4139654;28;20646;-87
2022/06/29 02:49:14;;;;;;;10.23;9.20;;;;;;;18.76;95.31;97929.13;4124996;28;20991;-87
2022/06/29 02:51:17;;;;;;;12.60;9.57;;;;;;;18.74;94.21;97929.28;4130677;28;20633;-87
2022/06/29 02:53:20;;;;;;;10.30;9.40;;;;;;;18.73;94.13;97932.09;4124366;28;20676;-87
2022/06/29 02:55:23;;;;;;;11.17;9.80;;;;;;;18.66;94.42;97926.59;4139902;28;20642;-86
2022/06/29 02:57:27;;;;;;;12.03;9.03;;;;;;;18.65;94.78;97934.69;4123540;28;20636;-86
2022/06/29 02:59:30;;;;;;;12.43;9.80;;;;;;;18.64;94.28;97933.88;4144361;28;20652;-86
2022/06/29 03:01:35;;;;;;;10.23;8.67;;;;;;;18.62;93.92;97937.66;4138192;28;20668;-86
2022/06/29 03:03:38;;;;;;;11.63;9.17;;;;;;;18.60;93.89;97932.53;4142306;28;20764;-86
2022/06/29 03:05:44;;;;;;;12.43;9.33;;;;;;;18.57;93.85;97938.13;4129268;28;20657;-86
2022/06/29 03:07:47;;;;;;;10.83;9.83;;;;;;;18.55;94.57;97939.25;4130012;28;20650;-86
2022/06/29 03:09:50;;;;;;;10.63;9.63;;;;;;;18.54;94.15;97938.44;4125051;28;20630;-87
2022/06/29 03:11:53;;;;;;;12.20;9.90;;;;;;;18.53;94.43;97947.34;4121681;28;21253;-87
2022/06/29 03:13:56;;;;;;;10.47;9.47;;;;;;;18.49;93.99;97940.72;4143430;28;21103;-87
2022/06/29 03:15:59;;;;;;;11.00;9.90;;;;;;;18.47;95.03;97955.06;4137108;28;20626;-86
2022/06/29 03:18:05;;;;;;;10.60;9.60;;;;;;;18.45;94.63;97939.38;4147964;28;20645;-87
2022/06/29 03:20:09;;;;;;;10.20;9.10;;;;;;;18.43;95.27;97946.63;4141527;28;20644;-86
2022/06/29 03:22:13;;;;;;;13.23;9.73;;;;;;;18.44;95.37;97932.44;4130138;28;20670;-86
2022/06/29 03:24:16;;;;;;;11.23;10.07;;;;;;;18.49;95.40;97934.59;4140549;28;20746;-86
2022/06/29 03:26:19;;;;;;;11.90;9.97;;;;;;;18.49;95.34;97930.16;4139874;28;20646;-87
2022/06/29 03:28:30;;;;;;;10.50;9.40;;;;;;;18.50;95.52;97930.97;4128190;28;20640;-87
2022/06/29 03:30:33;;;;;;;11.53;10.43;;;;;;;18.48;94.58;97922.41;4128929;28;21161;-86
2022/06/29 03:32:36;;;;;;;11.50;9.70;;;;;;;18.44;94.91;97924.50;4139197;28;20650;-87
2022/06/29 03:34:41;;;;;;;9.47;8.53;;;;;;;18.44;94.71;97931.59;4160134;28;20990;-86
2022/06/29 03:36:44;;;;;;;10.43;9.27;;;;;;;18.45;94.64;97923.53;4128257;28;21203;-86
2022/06/29 03:38:47;;;;;;;10.60;9.53;;;;;;;18.43;95.09;97914.94;4155567;28;21037;-86
2022/06/29 03:40:51;;;;;;;11.33;9.47;;;;;;;18.42;95.44;97913.28;4144288;28;21261;-86
2022/06/29 03:42:55;;;;;;;10.17;9.17;;;;;;;18.41;95.18;97916.88;4133553;28;20637;-86
2022/06/29 03:44:58;;;;;;;10.70;9.60;;;;;;;18.41;95.56;97910.78;4142275;28;20674;-86
2022/06/29 03:47:01;;;;;;;10.60;9.57;;;;;;;18.40;94.82;97913.59;4147078;28;20829;-86
2022/06/29 03:49:11;;;;;;;9.90;8.90;;;;;;;18.37;94.67;97914.72;4144562;28;21046;-87
2022/06/29 03:51:15;;;;;;;9.63;8.73;;;;;;;18.34;95.26;97915.03;4132652;28;20667;-86
2022/06/29 03:53:18;;;;;;;12.20;9.20;;;;;;;18.34;95.49;97917.66;4132786;28;20990;-86
2022/06/29 03:55:22;;;;;;;9.93;8.97;;;;;;;18.35;94.70;97919.34;4141616;28;20677;-86
2022/06/29 03:57:25;;;;;;;10.70;9.60;;;;;;;18.32;95.47;97916.19;4132400;28;21303;-86
2022/06/29 03:59:28;;;;;;;10.37;9.40;;;;;;;18.34;95.53;97922.13;4127873;28;20649;-86
2022/06/29 04:01:31;;;;;;;10.30;9.10;;;;;;;18.34;95.35;97917.66;4130633;28;20999;-86
2022/06/29 04:03:34;;;;;;;11.00;9.50;;;;;;;18.34;95.79;97917.66;4144593;28;20642;-85
2022/06/29 04:05:37;;;;;;;9.37;8.20;;;;;;;18.34;95.56;97922.94;4144375;28;20678;-86
2022/06/29 04:07:42;;;;;;;13.37;9.10;;;;;;;18.37;95.36;97924.47;4141822;28;21240;-86
2022/06/29 04:09:45;;;;;;;9.37;8.43;;;;;;;18.38;95.06;97937.50;4138521;28;20674;-86
2022/06/29 04:11:53;;;;;;;11.00;9.27;;;;;;;18.39;96.02;97938.34;4134555;28;21074;-87
2022/06/29 04:13:56;;;;;;;10.17;9.13;;;;;;;18.39;95.71;97938.34;4149431;28;21360;-86
2022/06/29 04:16:00;;;;;;;9.83;8.83;;;;;;;18.41;95.29;97940.66;4145924;28;20629;-87
2022/06/29 04:18:03;;;;;;;10.73;9.73;;;;;;;18.45;95.58;97934.09;4150824;28;20732;-86
2022/06/29 04:20:07;;;;;;;10.00;9.00;;;;;;;18.51;95.58;97930.81;4143567;28;20683;-88
2022/06/29 04:22:10;;;;;;;10.53;9.40;;;;;;;18.55;95.12;97937.47;4128379;28;20649;-87
2022/06/29 04:24:15;;;;;;;10.70;9.70;;;;;;;18.60;95.20;97934.34;4139800;28;21077;-87
2022/06/29 04:26:19;;;;;;;12.30;9.83;;;;;;;18.65;94.79;97929.41;4157941;28;21194;-85
2022/06/29 04:28:22;;;;;;;14.60;9.80;;;;;;;18.73;95.63;97926.78;4140437;28;20626;-86
2022/06/29 04:30:26;;;;;;;14.80;10.07;;;;;;;18.79;94.46;97921.69;4119082;28;20633;-86
2022/06/29 04:32:29;;;;;;;10.57;9.33;;;;;;;18.88;94.98;97926.03;4148509;28;20646;-87
2022/06/29 04:34:32;;;;;;;9.67;8.70;;;;;;;18.93;93.98;97923.75;4127524;28;20645;-86
2022/06/29 04:36:36;;;;;;;9.47;8.47;;;;;;;18.97;94.91;97925.06;4143635;28;20640;-86
2022/06/29 04:38:39;;;;;;;10.40;9.03;;;;;;;19.01;94.16;97931.69;4141239;28;21066;-86
2022/06/29 04:40:43;;;;;;;13.57;9.30;;;;;;;19.05;93.62;97927.78;4130289;28;20660;-86
2022/06/29 04:42:46;;;;;;;10.10;9.00;;;;;;;19.09;94.00;97939.69;4139651;28;20671;-86
2022/06/29 04:44:49;;;;;;;10.83;9.77;;;;;;;19.14;95.07;97935.59;4130894;28;21204;-87
2022/06/29 04:46:52;;;;;;;11.00;9.90;;;;;;;19.18;94.66;97939.53;4127525;28;21276;-86
2022/06/29 04:48:58;;;;;;;16.13;10.17;;;;;;;19.23;93.44;97942.56;4129987;28;20788;-86
2022/06/29 04:51:01;;;;;;;10.60;9.60;;;;;;;19.29;94.82;97947.19;4123672;28;20635;-88
2022/06/29 04:53:04;;;;;;;11.23;9.70;;;;;;;19.36;93.78;97937.59;4143247;28;20728;-87
2022/06/29 04:55:08;;;;;;;12.40;9.50;;;;;;;19.39;94.00;97943.41;4142609;28;21072;-88
2022/06/29 04:57:13;;;;;;;10.97;9.87;;;;;;;19.45;93.71;97947.22;4124232;28;20644;-87
2022/06/29 04:59:16;;;;;;;9.83;8.87;;;;;;;19.50;92.69;97948.41;4120882;28;21232;-88
2022/06/29 05:01:19;;;;;;;10.60;9.60;;;;;;;19.54;93.81;97951.53;4130347;28;20695;-87
2022/06/29 05:03:22;;;;;;;11.70;10.00;;;;;;;19.59;94.05;97949.22;4133523;28;20625;-88
2022/06/29 05:05:25;;;;;;;11.67;9.97;;;;;;;19.66;93.04;97937.00;4130870;28;20747;-88
2022/06/29 05:07:28;;;;;;;12.13;10.27;;;;;;;19.73;93.31;97946.75;4131109;28;20632;-87
2022/06/29 05:09:32;;;;;;;11.30;10.30;;;;;;;19.79;92.80;97943.47;4148223;28;20667;-89
2022/06/29 05:11:35;;;;;;;10.10;9.07;;;;;;;19.80;92.89;97954.84;4139526;28;21265;-90
2022/06/29 05:13:39;;;;;;;10.97;9.57;;;;;;;19.80;92.70;97950.41;4155706;28;20611;-90
2022/06/29 05:15:42;;;;;;;11.70;10.50;;;;;;;19.79;92.95;97951.41;4126392;28;20643;-89
2022/06/29 05:17:47;;;;;;;11.07;10.03;;;;;;;19.81;92.98;97948.59;4129153;28;21030;-90
2022/06/29 05:19:50;;;;;;;10.70;9.80;;;;;;;19.83;92.22;97951.88;4120635;28;20675;-88
2022/06/29 05:21:53;;;;;;;10.07;9.07;;;;;;;19.83;93.40;97959.81;4141568;28;20690;-88
2022/06/29 05:23:56;;;;;;;11.67;9.83;;;;;;;19.80;91.79;97947.78;4146803;28;20687;-88
2022/06/29 05:26:00;;;;;;;11.73;10.53;;;;;;;19.85;91.62;97953.38;4145790;28;20686;-88
2022/06/29 05:28:03;;;;;;;11.07;9.97;;;;;;;19.89;92.95;97957.38;4129828;28;20635;-88
2022/06/29 05:30:09;;;;;;;11.57;8.73;;;;;;;19.91;93.03;97950.13;4137136;28;20758;-88
2022/06/29 05:32:12;;;;;;;10.77;9.77;;;;;;;19.95;93.50;97936.38;4134620;28;20640;-88
2022/06/29 05:34:15;;;;;;;11.17;10.17;;;;;;;19.99;93.50;97942.16;4122745;28;20636;-88
2022/06/29 05:36:18;;;;;;;11.30;10.13;;;;;;;20.05;93.01;97946.78;4138075;28;20844;-88
2022/06/29 05:38:21;;;;;;;11.13;10.00;;;;;;;20.12;93.24;97947.78;4125492;28;20667;-88
2022/06/29 05:40:25;;;;;;;11.87;10.33;;;;;;;20.17;93.45;97951.56;4131366;28;21233;-88
2022/06/29 05:42:28;;;;;;;12.40;10.27;;;;;;;20.22;92.11;97951.06;4133874;28;20631;-87
2022/06/29 05:44:32;;;;;;;11.10;10.10;;;;;;;20.26;93.47;97949.75;4127612;28;21211;-88
2022/06/29 05:46:36;;;;;;;11.03;10.03;;;;;;;20.30;91.82;97953.69;4152616;28;20642;-88
2022/06/29 05:48:39;;;;;;;10.70;9.70;;;;;;;20.34;92.19;97953.19;4127547;28;20648;-88
2022/06/29 05:50:42;;;;;;;13.00;10.50;;;;;;;20.35;91.95;97945.09;4134417;28;20626;-87
2022/06/29 05:52:46;;;;;;;16.40;10.00;;;;;;;20.32;90.62;97941.97;4133326;28;21265;-87
2022/06/29 05:54:49;;;;;;;11.93;10.70;;;;;;;20.33;91.28;97941.78;4152459;28;20633;-88
2022/06/29 05:56:52;;;;;;;12.50;11.20;;;;;;;20.38;90.95;97936.81;4139855;28;22680;-87
2022/06/29 05:58:55;;;;;;;11.57;10.33;;;;;;;20.41;91.41;97944.41;4122459;28;20644;-87
2022/06/29 06:00:58;;;;;;;14.23;13.03;;;;;;;20.46;90.91;97946.56;4128166;28;20647;-87
2022/06/29 06:03:03;;;;;;;11.93;10.77;;;;;;;20.53;91.35;97942.25;4127950;28;21103;-87
2022/06/29 06:05:07;;;;;;;12.87;11.50;;;;;;;20.58;92.29;97946.06;4117113;28;20653;-87
2022/06/29 06:07:10;;;;;;;16.57;11.43;;;;;;;20.65;92.04;97948.84;4141349;28;20694;-87
2022/06/29 06:09:13;;;;;;;12.77;11.47;;;;;;;20.70;91.63;97944.69;4143310;28;21205;-87
2022/06/29 06:11:16;;;;;;;11.73;10.53;;;;;;;20.77;91.62;97942.22;4157002;28;20618;-87
2022/06/29 06:13:19;;;;;;;18.90;10.70;;;;;;;20.81;90.76;97947.00;4141410;28;20628;-87
2022/06/29 06:15:22;;;;;;;11.13;9.37;;;;;;;20.84;90.03;97941.34;4131192;28;20667;-87
2022/06/29 06:17:27;;;;;;;11.50;10.30;;;;;;;20.86;92.38;97950.78;4125233;28;20649;-87
2022/06/29 06:19:37;;;;;;;12.00;10.90;;;;;;;20.89;92.13;97944.31;4135371;28;20832;-87
2022/06/29 06:21:41;;;;;;;11.47;10.27;;;;;;;20.93;91.09;97942.97;4128778;28;20704;-87
2022/06/29 06:23:44;;;;;;;12.23;11.13;;;;;;;20.93;90.60;97942.97;4156599;28;20641;-87
2022/06/29 06:25:47;;;;;;;11.13;10.13;;;;;;;21.00;91.45;97946.56;4131155;28;20670;-87
2022/06/29 06:27:50;;;;;;;11.67;10.57;;;;;;;21.07;92.30;97950.22;4126201;28;20650;-86
2022/06/29 06:29:53;;;;;;;11.47;10.33;;;;;;;21.11;90.98;97949.69;4138423;28;20634;-87
2022/06/29 06:31:56;;;;;;;11.77;10.67;;;;;;;21.17;91.38;97942.84;4141780;28;20645;-87
2022/06/29 06:33:59;;;;;;;10.33;9.33;;;;;;;21.22;90.99;97943.16;4131188;28;20635;-87
2022/06/29 06:36:04;;;;;;;13.20;11.80;;;;;;;21.25;89.19;97945.47;4128625;28;20723;-88
2022/06/29 06:38:07;;;;;;;11.80;10.60;;;;;;;21.28;89.82;97938.00;4127360;28;21471;-87
2022/06/29 06:42:32;;;;;;;11.70;10.60;;;;;;;21.39;89.78;97948.19;4124937;28;20723;-87
2022/06/29 06:44:38;;;;;;;12.03;10.83;;;;;;;21.42;88.55;97948.69;4130620;28;20627;-87
2022/06/29 06:46:46;;;;;;;12.00;10.80;;;;;;;21.45;88.38;97952.81;4126169;28;20643;-89
2022/06/29 06:48:50;;;;;;;12.30;11.10;;;;;;;21.51;88.14;97952.97;4134531;28;20627;-87
2022/06/29 06:50:53;;;;;;;12.37;11.10;;;;;;;21.59;88.54;97950.28;4142297;28;20634;-87
2022/06/29 06:52:58;;;;;;;12.00;10.83;;;;;;;21.70;88.07;97952.53;4140995;28;20623;-88
2022/06/29 06:55:01;;;;;;;12.60;11.40;;;;;;;21.79;87.78;97954.13;4140060;28;20693;-87
2022/06/29 06:57:05;;;;;;;12.83;11.63;;;;;;;21.83;87.79;97948.28;4138189;28;20634;-87
2022/06/29 06:59:08;;;;;;;12.20;10.87;;;;;;;21.91;87.29;97953.50;4123273;28;20643;-87
2022/06/29 07:01:11;;;;;;;11.33;10.23;;;;;;;22.00;86.23;97967.56;4143131;28;20655;-87
2022/06/29 07:03:15;;;;;;;12.40;11.20;;;;;;;22.11;87.11;97953.84;4142000;28;20673;-88
2022/06/29 07:05:19;;;;;;;11.60;10.40;;;;;;;22.25;87.09;97959.22;4130220;28;20638;-89
2022/06/29 07:07:22;;;;;;;12.10;11.00;;;;;;;22.41;88.57;97967.88;4144475;28;20737;-87
2022/06/29 07:09:27;;;;;;;12.43;10.33;;;;;;;22.52;86.79;97964.81;4145393;28;20688;-87
2022/06/29 07:11:30;;;;;;;11.37;10.37;;;;;;;22.64;87.10;97965.16;4125818;28;20664;-87
2022/06/29 07:13:34;;;;;;;10.43;9.43;;;;;;;22.76;87.42;97954.72;4144125;28;21197;-87
2022/06/29 07:15:37;;;;;;;11.90;10.80;;;;;;;22.84;85.60;97951.97;4132463;28;20735;-88
2022/06/29 07:17:41;;;;;;;11.67;10.57;;;;;;;22.90;86.27;97955.75;4130983;28;20653;-87
2022/06/29 07:19:44;;;;;;;11.63;10.53;;;;;;;22.95;86.13;97959.50;4130362;28;20621;-87
2022/06/29 07:21:51;;;;;;;11.87;10.87;;;;;;;22.99;86.71;97967.97;4142080;28;20721;-87
2022/06/29 07:23:58;;;;;;;12.87;11.03;;;;;;;23.05;86.02;97970.72;4142733;28;20643;-87
2022/06/29 07:26:02;;;;;;;14.33;10.80;;;;;;;23.08;86.33;97973.00;4142983;28;21224;-88
2022/06/29 07:28:06;;;;;;;11.07;10.17;;;;;;;23.15;86.17;97973.91;4129887;28;20646;-88
2022/06/29 07:30:10;;;;;;;10.57;9.67;;;;;;;23.27;86.04;97970.59;4129673;28;20629;-88
2022/06/29 07:32:13;;;;;;;11.40;10.20;;;;;;;23.38;86.18;97977.28;4140391;28;20688;-88
2022/06/29 07:34:17;;;;;;;12.40;10.53;;;;;;;23.53;85.24;97975.38;4131424;28;20614;-88
2022/06/29 07:36:20;;;;;;;11.53;10.53;;;;;;;23.67;84.70;97971.91;4124578;28;20650;-88
2022/06/29 07:38:23;;;;;;;11.50;10.40;;;;;;;23.81;83.88;97979.84;4135148;28;21212;-88
2022/06/29 07:40:27;;;;;;;12.43;11.23;;;;;;;23.96;82.69;97983.28;4135418;28;20629;-88
2022/06/29 07:42:33;;;;;;;10.73;9.83;;;;;;;24.05;82.62;97976.81;4138308;28;20692;-88
2022/06/29 07:44:36;;;;;;;12.40;11.20;;;;;;;24.17;83.60;97973.44;4131699;28;20649;-87
2022/06/29 07:46:39;;;;;;;10.87;9.97;;;;;;;24.18;83.43;97986.56;4137341;28;20635;-88
2022/06/29 07:48:42;;;;;;;11.50;10.50;;;;;;;24.13;81.52;97977.53;4131124;28;20691;-88
2022/06/29 07:50:45;;;;;;;11.43;10.40;;;;;;;24.13;82.79;97972.19;4132230;28;21000;-88
2022/06/29 07:52:49;;;;;;;12.40;10.80;;;;;;;24.23;83.91;97968.16;4140665;28;20671;-88
2022/06/29 07:54:52;;;;;;;10.73;9.73;;;;;;;24.34;81.96;97962.34;4144843;28;20635;-87
2022/06/29 07:57:05;;;;;;;12.17;9.90;;;;;;;24.50;82.02;97959.38;4141495;28;20691;-87
2022/06/29 07:59:19;;;;;;;11.87;10.87;;;;;;;24.65;80.24;97962.78;4129037;28;21072;-88
2022/06/29 08:01:41;;;;;;;11.80;10.70;;;;;;;25.26;80.87;97971.59;4137692;28;20758;-88
2022/06/29 08:03:44;;;;;;;12.50;11.30;;;;;;;25.78;80.15;97972.59;4143168;28;20630;-88
2022/06/29 08:05:47;;;;;;;11.23;10.13;;;;;;;26.22;78.12;97971.06;4124996;28;20700;-88
2022/06/29 08:07:50;;;;;;;11.60;10.60;;;;;;;26.58;77.60;97982.19;4131889;28;20664;-88
2022/06/29 08:09:53;;;;;;;10.40;9.50;;;;;;;26.91;76.63;97970.44;4139145;28;20674;-88
2022/06/29 08:11:56;;;;;;;10.90;9.90;;;;;;;27.27;76.49;97981.47;4143872;28;20625;-88
2022/06/29 08:13:59;;;;;;;10.83;9.70;;;;;;;27.45;75.48;97973.56;4141972;28;20621;-88
2022/06/29 08:16:05;;;;;;;11.57;10.57;;;;;;;27.51;72.24;97965.53;4128598;28;20646;-89
2022/06/29 08:18:08;;;;;;;10.97;9.97;;;;;;;27.35;72.12;97967.84;4143375;28;20642;-88
2022/06/29 08:20:12;;;;;;;10.27;9.33;;;;;;;27.53;74.97;97969.66;4141777;28;20633;-88
2022/06/29 08:22:15;;;;;;;9.90;9.00;;;;;;;27.71;72.79;97968.94;4125882;28;20667;-89
2022/06/29 08:24:18;;;;;;;10.40;9.30;;;;;;;27.71;72.71;97977.81;4124887;28;20673;-88
2022/06/29 08:26:22;;;;;;;9.37;8.57;;;;;;;27.92;73.56;97977.50;4123782;28;20615;-88
2022/06/29 08:28:45;;;;;;;9.80;8.10;;;;;;;28.19;73.18;97974.47;4135767;28;20634;-88
2022/06/29 08:30:48;;;;;;;9.13;8.33;;;;;;;28.29;70.78;97965.91;4129590;28;20635;-87
2022/06/29 08:32:53;;;;;;;9.03;8.23;;;;;;;28.13;70.75;97969.13;4158778;28;20618;-89
2022/06/29 08:34:59;;;;;;;9.73;8.70;;;;;;;28.00;69.91;97964.63;4141793;28;20678;-87
2022/06/29 08:37:08;;;;;;;8.77;8.00;;;;;;;28.20;71.91;97965.34;4122291;28;21761;-89
2022/06/29 08:39:12;;;;;;;8.47;7.67;;;;;;;28.66;71.90;97961.28;4144142;28;20638;-88
2022/06/29 08:41:16;;;;;;;8.57;7.77;;;;;;;28.94;69.01;97958.13;4139939;28;20638;-89
2022/06/29 08:43:22;;;;;;;9.37;8.47;;;;;;;28.85;69.10;97956.78;4143323;28;20671;-90
2022/06/29 08:45:25;;;;;;;9.30;8.43;;;;;;;28.71;71.33;97958.75;4140841;28;21611;-89
2022/06/29 08:47:28;;;;;;;8.50;7.80;;;;;;;28.48;71.47;97952.34;4142672;28;20630;-89
2022/06/29 08:49:33;;;;;;;8.60;7.90;;;;;;;28.34;71.21;97948.13;4143050;28;20638;-88
2022/06/29 08:51:36;;;;;;;9.57;8.60;;;;;;;28.30;68.78;97949.59;4123539;28;20621;-89
2022/06/29 08:53:41;;;;;;;8.57;7.87;;;;;;;28.11;70.50;97947.88;4154408;28;21205;-89
2022/06/29 08:55:46;;;;;;;9.23;8.47;;;;;;;27.95;71.36;97942.19;4140447;28;20630;-89
2022/06/29 08:57:50;;;;;;;8.67;7.97;;;;;;;27.77;71.96;97944.78;4123755;28;21071;-87
2022/06/29 08:59:54;;;;;;;9.37;8.53;;;;;;;27.67;70.39;97943.59;4129584;28;20649;-88
2022/06/29 09:02:04;;;;;;;9.13;8.33;;;;;;;28.07;73.55;97932.38;4137725;28;20665;-88
2022/06/29 09:04:07;;;;;;;9.43;8.53;;;;;;;28.44;70.60;97942.25;4128708;28;21056;-90
2022/06/29 09:06:12;;;;;;;9.53;8.70;;;;;;;28.78;72.95;97945.28;4132100;28;20663;-88
2022/06/29 09:08:16;;;;;;;10.00;9.10;;;;;;;29.00;70.89;97955.38;4138824;28;20740;-89
2022/06/29 09:10:21;;;;;;;9.00;8.20;;;;;;;29.00;69.91;97948.16;4143101;28;20652;-89
2022/06/29 09:12:24;;;;;;;12.00;8.80;;;;;;;28.98;69.66;97945.91;4126623;28;20644;-86
2022/06/29 09:14:28;;;;;;;9.50;8.17;;;;;;;28.87;68.63;97938.56;4145457;28;21445;-88
2022/06/29 09:16:31;;;;;;;8.93;8.23;;;;;;;28.77;68.45;97938.25;4145631;28;20784;-88
2022/06/29 09:18:35;;;;;;;9.53;8.63;;;;;;;28.56;69.16;97935.94;4141812;28;20718;-88
2022/06/29 09:20:38;;;;;;;9.43;8.60;;;;;;;28.34;70.05;97932.03;4128898;28;20648;-88
2022/06/29 09:22:53;;;;;;;9.60;8.70;;;;;;;28.16;70.19;97929.28;4125099;28;20750;-89
2022/06/29 09:24:56;;;;;;;9.67;8.77;;;;;;;28.04;71.93;97922.94;4143943;28;21289;-89
2022/06/29 09:27:18;;;;;;;9.57;8.67;;;;;;;27.94;69.66;97929.00;4139811;28;20819;-90
2022/06/29 09:29:23;;;;;;;9.53;8.50;;;;;;;27.87;71.03;97928.22;4138050;28;20636;-90
2022/06/29 09:31:26;;;;;;;8.80;8.00;;;;;;;27.78;73.50;97927.63;4122536;28;20649;-89
2022/06/29 09:33:31;;;;;;;8.77;7.97;;;;;;;27.60;73.76;97926.72;4139929;28;20634;-88
2022/06/29 09:35:35;;;;;;;9.93;9.13;;;;;;;27.52;73.99;97926.16;4133241;28;21084;-89
2022/06/29 09:37:38;;;;;;;12.07;11.03;;;;;;;27.49;73.16;97922.00;4131842;28;21063;-89
2022/06/29 09:39:44;;;;;;;9.87;9.07;;;;;;;27.72;72.50;97925.00;4123726;28;20997;-88
2022/06/29 09:41:47;;;;;;;9.83;9.00;;;;;;;28.09;73.04;97917.75;4126519;28;20674;-88
2022/06/29 09:43:50;;;;;;;9.93;9.03;;;;;;;28.18;68.56;97916.44;4143741;28;20661;-89
2022/06/29 09:45:54;;;;;;;9.70;8.90;;;;;;;27.97;69.57;97926.69;4125640;28;21065;-89